Time;durP1;ratioP1;P1;durP2;ratioP2;P2;SDS_P1;SDS_P2;PMS_P1;PMS_P2;Temp;Humidity;BMP_temperature;BMP_pressure;BME280_temperature;BME280_humidity;BME280_pressure;Samples;Min_cycle;Max_cycle;Signal;HPM_P1;HPM_P2
2021/09/03 00:01:51;;;;;;;;;;;;;;;;;;5003417;28;19925;-69
2021/09/03 00:04:18;;;;;;;;;;;;;;;;;;4998539;28;19941;-70
2021/09/03 00:06:45;;;;;;;;;;;;;;;;;;5006026;28;19925;-70
2021/09/03 00:09:12;;;;;;;;;;;;;;;;;;4998280;28;19929;-69
2021/09/03 00:11:39;;;;;;;;;;;;;;;;;;5002621;28;19933;-69
2021/09/03 00:14:07;;;;;;;;;;;;;;;;;;5003117;28;21524;-69
2021/09/03 00:16:37;;;;;;;;;;;;;;;;;;5003965;28;19926;-70
2021/09/03 00:19:04;;;;;;;;;;;;;;;;;;5002628;28;20018;-70
2021/09/03 00:21:31;;;;;;;;;;;;;;;;;;5000675;28;19933;-70
2021/09/03 00:23:58;;;;;;;;;;;;;;;;;;5009248;28;19925;-70
2021/09/03 00:26:25;;;;;;;;;;;;;;;;;;4999834;28;19936;-71
2021/09/03 00:28:52;;;;;;;;;;;;;;;;;;5000265;28;20297;-71
2021/09/03 00:31:19;;;;;;;;;;;;;;;;;;5002730;28;20028;-71
2021/09/03 00:33:46;;;;;;;;;;;;;;;;;;5007469;28;19926;-71
2021/09/03 00:36:13;;;;;;;;;;;;;;;;;;5002395;28;19929;-71
2021/09/03 00:38:40;;;;;;;;;;;;;;;;;;5002882;28;19937;-70
2021/09/03 00:41:07;;;;;;;;;;;;;;;;;;4992891;28;19933;-70
2021/09/03 00:43:34;;;;;;;;;;;;;;;;;;5005954;28;19926;-70
2021/09/03 00:46:01;;;;;;;;;;;;;;;;;;5003534;28;19939;-70
2021/09/03 00:48:27;;;;;;;;;;;;;;;;;;4999163;28;19934;-70
2021/09/03 00:50:54;;;;;;;;;;;;;;;;;;5003019;28;19926;-69
2021/09/03 00:53:21;;;;;;;;;;;;;;;;;;5006609;28;19933;-70
2021/09/03 00:55:48;;;;;;;;;;;;;;;;;;5001908;28;19936;-70
2021/09/03 00:58:15;;;;;;;;;;;;;;;;;;4996304;28;19926;-70
2021/09/03 01:00:42;;;;;;;;;;;;;;;;;;5006963;28;20297;-70
2021/09/03 01:03:09;;;;;;;;;;;;;;;;;;5002633;28;19925;-70
2021/09/03 01:05:36;;;;;;;;;;;;;;;;;;5000895;28;19926;-70
2021/09/03 01:08:03;;;;;;;;;;;;;;;;;;4999903;28;19932;-71
2021/09/03 01:10:30;;;;;;;;;;;;;;;;;;4999348;28;19933;-71
2021/09/03 01:12:57;;;;;;;;;;;;;;;;;;5002592;28;19926;-71
2021/09/03 01:15:24;;;;;;;;;;;;;;;;;;4999402;28;19933;-71
2021/09/03 01:17:51;;;;;;;;;;;;;;;;;;5000488;28;19925;-71
2021/09/03 01:20:18;;;;;;;;;;;;;;;;;;5005452;28;19933;-71
2021/09/03 01:22:45;;;;;;;;;;;;;;;;;;4997822;28;19925;-69
2021/09/03 01:25:12;;;;;;;;;;;;;;;;;;5005332;28;20009;-70
2021/09/03 01:27:40;;;;;;;;;;;;;;;;;;5003263;28;20015;-70
2021/09/03 01:30:07;;;;;;;;;;;;;;;;;;4997750;28;19926;-70
2021/09/03 01:32:34;;;;;;;;;;;;;;;;;;5002612;28;19925;-70
2021/09/03 01:35:01;;;;;;;;;;;;;;;;;;5000458;28;20408;-70
2021/09/03 01:37:28;;;;;;;;;;;;;;;;;;5006158;28;20389;-70
2021/09/03 01:39:54;;;;;;;;;;;;;;;;;;4997918;28;20042;-69
2021/09/03 01:42:21;;;;;;;;;;;;;;;;;;5002175;28;19932;-70
2021/09/03 01:44:48;;;;;;;;;;;;;;;;;;5001499;28;19930;-70
2021/09/03 01:47:15;;;;;;;;;;;;;;;;;;5006556;28;19926;-70
2021/09/03 01:49:42;;;;;;;;;;;;;;;;;;5005516;28;19932;-69
2021/09/03 01:52:09;;;;;;;;;;;;;;;;;;5012521;28;19925;-70
2021/09/03 01:54:36;;;;;;;;;;;;;;;;;;4999887;28;19925;-70
2021/09/03 01:57:03;;;;;;;;;;;;;;;;;;5007008;28;20293;-69
2021/09/03 01:59:30;;;;;;;;;;;;;;;;;;5002840;28;20324;-69
2021/09/03 02:01:57;;;;;;;;;;;;;;;;;;4998064;28;19940;-70
2021/09/03 02:04:24;;;;;;;;;;;;;;;;;;5011889;28;19933;-71
2021/09/03 02:06:51;;;;;;;;;;;;;;;;;;5003763;28;19929;-71
2021/09/03 02:09:18;;;;;;;;;;;;;;;;;;5002044;28;20309;-72
2021/09/03 02:11:45;;;;;;;;;;;;;;;;;;5000323;28;19933;-70
2021/09/03 02:14:12;;;;;;;;;;;;;;;;;;5006870;28;19925;-70
2021/09/03 02:16:39;;;;;;;;;;;;;;;;;;5004514;28;20389;-70
2021/09/03 02:19:06;;;;;;;;;;;;;;;;;;5002208;28;19933;-70
2021/09/03 02:21:32;;;;;;;;;;;;;;;;;;5004808;28;19929;-70
2021/09/03 02:23:59;;;;;;;;;;;;;;;;;;5011411;28;20300;-70
2021/09/03 02:26:26;;;;;;;;;;;;;;;;;;5005850;28;19932;-70
2021/09/03 02:28:53;;;;;;;;;;;;;;;;;;4996124;28;19925;-71
2021/09/03 02:31:20;;;;;;;;;;;;;;;;;;5004010;28;19930;-71
2021/09/03 02:33:47;;;;;;;;;;;;;;;;;;5007125;28;19932;-72
2021/09/03 02:36:14;;;;;;;;;;;;;;;;;;5004961;28;19925;-70
2021/09/03 02:38:43;;;;;;;;;;;;;;;;;;5000229;28;19929;-70
2021/09/03 02:41:10;;;;;;;;;;;;;;;;;;5006944;28;19932;-70
2021/09/03 02:43:37;;;;;;;;;;;;;;;;;;5004312;28;20285;-70
2021/09/03 02:46:04;;;;;;;;;;;;;;;;;;5007478;28;19925;-70
2021/09/03 02:48:31;;;;;;;;;;;;;;;;;;5002446;28;19930;-70
2021/09/03 02:50:58;;;;;;;;;;;;;;;;;;5006471;28;20385;-70
2021/09/03 02:53:25;;;;;;;;;;;;;;;;;;5002770;28;20406;-70
2021/09/03 02:55:52;;;;;;;;;;;;;;;;;;5008923;28;20017;-70
2021/09/03 02:58:19;;;;;;;;;;;;;;;;;;5010997;28;19931;-70
2021/09/03 03:00:46;;;;;;;;;;;;;;;;;;5003883;28;19926;-70
2021/09/03 03:03:12;;;;;;;;;;;;;;;;;;5000245;28;19931;-70
2021/09/03 03:05:39;;;;;;;;;;;;;;;;;;5003464;28;19930;-70
2021/09/03 03:08:06;;;;;;;;;;;;;;;;;;4999069;28;19926;-70
2021/09/03 03:10:33;;;;;;;;;;;;;;;;;;5001394;28;19926;-71
2021/09/03 03:13:09;;;;;;;;;;;;;;;;;;5001002;28;19933;-70
2021/09/03 03:15:36;;;;;;;;;;;;;;;;;;5005019;28;19933;-70
2021/09/03 03:18:03;;;;;;;;;;;;;;;;;;4997194;28;19925;-70
2021/09/03 03:20:30;;;;;;;;;;;;;;;;;;5008158;28;19930;-70
2021/09/03 03:22:57;;;;;;;;;;;;;;;;;;5008787;28;19934;-70
2021/09/03 03:25:24;;;;;;;;;;;;;;;;;;5010837;28;19932;-70
2021/09/03 03:27:51;;;;;;;;;;;;;;;;;;4998127;28;20374;-70
2021/09/03 03:30:18;;;;;;;;;;;;;;;;;;5006264;28;19931;-71
2021/09/03 03:32:45;;;;;;;;;;;;;;;;;;5005201;28;19926;-71
2021/09/03 03:35:12;;;;;;;;;;;;;;;;;;4998175;28;19932;-70
2021/09/03 03:37:39;;;;;;;;;;;;;;;;;;5008316;28;19926;-70
2021/09/03 03:40:06;;;;;;;;;;;;;;;;;;5002422;28;19925;-70
2021/09/03 03:42:33;;;;;;;;;;;;;;;;;;5015913;22;20008;-65
2021/09/03 03:45:00;;;;;;;;;;;;;;;;;;5009003;28;19930;-66
2021/09/03 03:47:27;;;;;;;;;;;;;;;;;;5008509;28;19929;-66
2021/09/03 03:49:54;;;;;;;;;;;;;;;;;;5009081;28;20423;-66
2021/09/03 03:52:21;;;;;;;;;;;;;;;;;;5005350;28;20019;-66
2021/09/03 03:54:48;;;;;;;;;;;;;;;;;;5008518;28;19925;-66
2021/09/03 03:57:15;;;;;;;;;;;;;;;;;;5003934;28;19925;-66
2021/09/03 03:59:42;;;;;;;;;;;;;;;;;;5004665;28;20385;-66
2021/09/03 04:02:11;;;;;;;;;;;;;;;;;;5012412;28;19926;-67
2021/09/03 04:04:38;;;;;;;;;;;;;;;;;;5015550;28;19925;-66
2021/09/03 04:07:06;;;;;;;;;;;;;;;;;;5007441;28;19930;-66
2021/09/03 04:09:33;;;;;;;;;;;;;;;;;;5004800;28;20012;-66
2021/09/03 04:12:00;;;;;;;;;;;;;;;;;;5015389;28;19925;-65
2021/09/03 04:14:27;;;;;;;;;;;;;;;;;;5006092;28;19956;-67
2021/09/03 04:16:54;;;;;;;;;;;;;;;;;;5006811;28;19926;-66
2021/09/03 04:19:21;;;;;;;;;;;;;;;;;;5003557;28;19929;-67
2021/09/03 04:21:48;;;;;;;;;;;;;;;;;;5003685;28;20499;-66
2021/09/03 04:24:15;;;;;;;;;;;;;;;;;;5001447;28;19933;-66
2021/09/03 04:26:43;;;;;;;;;;;;;;;;;;5007737;28;19930;-66
2021/09/03 04:29:10;;;;;;;;;;;;;;;;;;5010153;28;19925;-66
2021/09/03 04:31:36;;;;;;;;;;;;;;;;;;4999820;28;19933;-66
2021/09/03 04:34:03;;;;;;;;;;;;;;;;;;5003724;28;19926;-66
2021/09/03 04:36:30;;;;;;;;;;;;;;;;;;5017367;28;19926;-66
2021/09/03 04:38:57;;;;;;;;;;;;;;;;;;5012776;28;19969;-66
2021/09/03 04:41:24;;;;;;;;;;;;;;;;;;5006643;28;19926;-65
2021/09/03 04:43:52;;;;;;;;;;;;;;;;;;5006783;28;19965;-65
2021/09/03 04:46:19;;;;;;;;;;;;;;;;;;5000619;28;19926;-66
2021/09/03 04:48:46;;;;;;;;;;;;;;;;;;5003669;28;19925;-66
2021/09/03 04:51:13;;;;;;;;;;;;;;;;;;5007182;28;19929;-66
2021/09/03 04:53:41;;;;;;;;;;;;;;;;;;5005298;28;19929;-66
2021/09/03 04:56:07;;;;;;;;;;;;;;;;;;5003228;28;20348;-64
2021/09/03 04:58:35;;;;;;;;;;;;;;;;;;5008191;28;19926;-66
2021/09/03 05:01:02;;;;;;;;;;;;;;;;;;5001875;28;19980;-66
2021/09/03 05:03:29;;;;;;;;;;;;;;;;;;5005905;28;20008;-67
2021/09/03 05:05:56;;;;;;;;;;;;;;;;;;5006192;28;20015;-66
2021/09/03 05:08:23;;;;;;;;;;;;;;;;;;5003082;28;19940;-67
2021/09/03 05:10:50;;;;;;;;;;;;;;;;;;5003203;28;20036;-67
2021/09/03 05:13:17;;;;;;;;;;;;;;;;;;5004955;28;19934;-66
2021/09/03 05:15:44;;;;;;;;;;;;;;;;;;5009412;28;19933;-68
2021/09/03 05:18:12;;;;;;;;;;;;;;;;;;5009425;28;19988;-67
2021/09/03 05:20:39;;;;;;;;;;;;;;;;;;5007170;28;19926;-67
2021/09/03 05:23:06;;;;;;;;;;;;;;;;;;5004237;28;20438;-65
2021/09/03 05:25:32;;;;;;;;;;;;;;;;;;5008788;28;19929;-66
2021/09/03 05:27:59;;;;;;;;;;;;;;;;;;5015054;28;19925;-66
2021/09/03 05:30:26;;;;;;;;;;;;;;;;;;5004535;28;19940;-66
2021/09/03 05:32:54;;;;;;;;;;;;;;;;;;5004968;28;20269;-67
2021/09/03 05:35:24;;;;;;;;;;;;;;;;;;5003680;28;19926;-67
2021/09/03 05:37:51;;;;;;;;;;;;;;;;;;5017380;28;20384;-65
2021/09/03 05:40:18;;;;;;;;;;;;;;;;;;5015055;28;19948;-67
2021/09/03 05:42:45;;;;;;;;;;;;;;;;;;5007939;28;19932;-66
2021/09/03 05:45:11;;;;;;;;;;;;;;;;;;5008204;28;19932;-67
2021/09/03 05:47:38;;;;;;;;;;;;;;;;;;5005346;28;20297;-67
2021/09/03 05:50:05;;;;;;;;;;;;;;;;;;5014225;28;19933;-67
2021/09/03 05:52:32;;;;;;;;;;;;;;;;;;5009659;28;19926;-66
2021/09/03 05:54:59;;;;;;;;;;;;;;;;;;5005663;28;19936;-67
2021/09/03 05:57:26;;;;;;;;;;;;;;;;;;5006106;28;20310;-67
2021/09/03 05:59:53;;;;;;;;;;;;;;;;;;5005765;28;19939;-67
2021/09/03 06:02:20;;;;;;;;;;;;;;;;;;5004623;28;19926;-67
2021/09/03 06:04:47;;;;;;;;;;;;;;;;;;5010876;28;19925;-66
2021/09/03 06:07:14;;;;;;;;;;;;;;;;;;5008943;28;19936;-67
2021/09/03 06:09:41;;;;;;;;;;;;;;;;;;4999901;28;19932;-66
2021/09/03 06:12:08;;;;;;;;;;;;;;;;;;5006902;28;20305;-67
2021/09/03 06:14:35;;;;;;;;;;;;;;;;;;5008015;28;19931;-67
2021/09/03 06:17:02;;;;;;;;;;;;;;;;;;5011559;28;20445;-68
2021/09/03 06:19:29;;;;;;;;;;;;;;;;;;5003001;28;19926;-66
2021/09/03 06:21:57;;;;;;;;;;;;;;;;;;5004725;28;19953;-67
2021/09/03 06:24:31;;;;;;;;;;;;;;;;;;5004875;28;20412;-68
2021/09/03 06:26:58;;;;;;;;;;;;;;;;;;5003444;28;19972;-67
2021/09/03 06:29:41;;;;;;;;;;;;;;;;;;5006547;28;20016;-68
2021/09/03 06:32:08;;;;;;;;;;;;;;;;;;5012164;28;19929;-65
2021/09/03 06:34:35;;;;;;;;;;;;;;;;;;5003820;28;19969;-63
2021/09/03 06:37:02;;;;;;;;;;;;;;;;;;5003760;28;19930;-63
2021/09/03 06:39:29;;;;;;;;;;;;;;;;;;5005850;28;19974;-66
2021/09/03 06:41:56;;;;;;;;;;;;;;;;;;5005285;28;21758;-64
2021/09/03 06:44:22;;;;;;;;;;;;;;;;;;5006996;28;20451;-64
2021/09/03 06:46:49;;;;;;;;;;;;;;;;;;4997060;28;19934;-67
2021/09/03 06:49:16;;;;;;;;;;;;;;;;;;4997850;28;19929;-64
2021/09/03 06:51:43;;;;;;;;;;;;;;;;;;5007055;28;19944;-64
2021/09/03 06:54:10;;;;;;;;;;;;;;;;;;5005201;28;19932;-66
2021/09/03 06:56:37;;;;;;;;;;;;;;;;;;5003859;28;20362;-64
2021/09/03 06:59:04;;;;;;;;;;;;;;;;;;5003287;28;19929;-65
2021/09/03 07:01:31;;;;;;;;;;;;;;;;;;5005687;28;19929;-66
2021/09/03 07:03:58;;;;;;;;;;;;;;;;;;5007170;28;20024;-65
2021/09/03 07:06:25;;;;;;;;;;;;;;;;;;5008481;28;19932;-65
2021/09/03 07:08:52;;;;;;;;;;;;;;;;;;5009749;28;19980;-64
2021/09/03 07:11:19;;;;;;;;;;;;;;;;;;5008165;28;19940;-64
2021/09/03 07:13:46;;;;;;;;;;;;;;;;;;5003107;28;19933;-64
2021/09/03 07:16:13;;;;;;;;;;;;;;;;;;5004793;28;19932;-64
2021/09/03 07:18:40;;;;;;;;;;;;;;;;;;5000925;28;19926;-64
2021/09/03 07:21:07;;;;;;;;;;;;;;;;;;5006339;28;19926;-64
2021/09/03 07:23:34;;;;;;;;;;;;;;;;;;5002799;28;20036;-65
2021/09/03 07:26:01;;;;;;;;;;;;;;;;;;5002734;28;19949;-65
2021/09/03 07:28:28;;;;;;;;;;;;;;;;;;5011046;28;19932;-65
2021/09/03 07:30:55;;;;;;;;;;;;;;;;;;5007509;28;19925;-67
2021/09/03 07:33:22;;;;;;;;;;;;;;;;;;5009119;28;19926;-66
2021/09/03 07:35:49;;;;;;;;;;;;;;;;;;5005087;28;19925;-64
2021/09/03 07:38:16;;;;;;;;;;;;;;;;;;5008791;28;20020;-65
2021/09/03 07:40:43;;;;;;;;;;;;;;;;;;5006592;28;20283;-64
2021/09/03 07:43:10;;;;;;;;;;;;;;;;;;5004027;28;19926;-64
2021/09/03 07:45:37;;;;;;;;;;;;;;;;;;5005316;28;20417;-64
2021/09/03 07:48:04;;;;;;;;;;;;;;;;;;5004953;28;20017;-65
2021/09/03 07:50:32;;;;;;;;;;;;;;;;;;5007293;28;19926;-63
2021/09/03 07:52:59;;;;;;;;;;;;;;;;;;4993704;28;20022;-64
2021/09/03 07:55:26;;;;;;;;;;;;;;;;;;4999372;28;19956;-64
2021/09/03 07:57:53;;;;;;;;;;;;;;;;;;5001328;28;19988;-64
2021/09/03 08:00:20;;;;;;;;;;;;;;;;;;5006803;28;19948;-66
2021/09/03 08:02:47;;;;;;;;;;;;;;;;;;5011851;28;20404;-66
2021/09/03 08:05:14;;;;;;;;;;;;;;;;;;5004600;28;19963;-65
2021/09/03 08:07:42;;;;;;;;;;;;;;;;;;4996799;28;20024;-66
2021/09/03 08:10:08;;;;;;;;;;;;;;;;;;4998793;28;19963;-67
2021/09/03 08:12:35;;;;;;;;;;;;;;;;;;5000645;28;19951;-68
2021/09/03 08:15:02;;;;;;;;;;;;;;;;;;5001321;28;19929;-67
2021/09/03 08:17:29;;;;;;;;;;;;;;;;;;5006014;28;20020;-67
2021/09/03 08:19:56;;;;;;;;;;;;;;;;;;5001714;28;19933;-67
2021/09/03 08:22:23;;;;;;;;;;;;;;;;;;5002258;28;19936;-67
2021/09/03 08:24:50;;;;;;;;;;;;;;;;;;4999319;28;20035;-67
2021/09/03 08:27:17;;;;;;;;;;;;;;;;;;5006370;28;19948;-67
2021/09/03 08:29:45;;;;;;;;;;;;;;;;;;5004515;28;19979;-67
2021/09/03 08:32:12;;;;;;;;;;;;;;;;;;5004533;28;19956;-66
2021/09/03 08:34:39;;;;;;;;;;;;;;;;;;5002368;28;19926;-67
2021/09/03 08:37:06;;;;;;;;;;;;;;;;;;5003442;28;20420;-67
2021/09/03 08:39:33;;;;;;;;;;;;;;;;;;5001638;28;19925;-66
2021/09/03 08:42:00;;;;;;;;;;;;;;;;;;4999652;28;19926;-67
2021/09/03 08:44:27;;;;;;;;;;;;;;;;;;5001752;28;19925;-67
2021/09/03 08:46:54;;;;;;;;;;;;;;;;;;5003771;28;19933;-68
2021/09/03 08:49:21;;;;;;;;;;;;;;;;;;5009396;28;20024;-68
2021/09/03 08:51:48;;;;;;;;;;;;;;;;;;5004780;28;19926;-67
2021/09/03 08:54:15;;;;;;;;;;;;;;;;;;5006395;28;20282;-67
2021/09/03 08:56:41;;;;;;;;;;;;;;;;;;5002302;28;20321;-67
2021/09/03 08:59:08;;;;;;;;;;;;;;;;;;4993836;28;19934;-67
2021/09/03 09:01:35;;;;;;;;;;;;;;;;;;4996295;28;19933;-68
2021/09/03 09:04:02;;;;;;;;;;;;;;;;;;5003203;28;20380;-68
2021/09/03 09:06:29;;;;;;;;;;;;;;;;;;4998743;28;19926;-68
2021/09/03 09:08:56;;;;;;;;;;;;;;;;;;5004500;28;20083;-67
2021/09/03 09:11:23;;;;;;;;;;;;;;;;;;5002354;28;19925;-68
2021/09/03 09:13:50;;;;;;;;;;;;;;;;;;5000831;28;20020;-67
2021/09/03 09:16:17;;;;;;;;;;;;;;;;;;5006978;28;19992;-66
2021/09/03 09:18:44;;;;;;;;;;;;;;;;;;5006728;28;19929;-68
2021/09/03 09:21:11;;;;;;;;;;;;;;;;;;5000887;28;19944;-66
2021/09/03 09:23:38;;;;;;;;;;;;;;;;;;5004990;28;19926;-67
2021/09/03 09:26:05;;;;;;;;;;;;;;;;;;5002751;28;20033;-66
2021/09/03 09:28:33;;;;;;;;;;;;;;;;;;5004404;28;19930;-67
2021/09/03 09:31:00;;;;;;;;;;;;;;;;;;5003650;28;19929;-67
2021/09/03 09:33:27;;;;;;;;;;;;;;;;;;5000495;28;20004;-64
2021/09/03 09:35:54;;;;;;;;;;;;;;;;;;5004162;28;19999;-65
2021/09/03 09:38:21;;;;;;;;;;;;;;;;;;5003381;28;20394;-64
2021/09/03 09:40:48;;;;;;;;;;;;;;;;;;5003158;28;19925;-64
2021/09/03 09:43:15;;;;;;;;;;;;;;;;;;5026869;23;19935;-70
2021/09/03 09:45:42;;;;;;;;;;;;;;;;;;5027880;28;19925;-70
2021/09/03 09:48:09;;;;;;;;;;;;;;;;;;5019117;28;19948;-69
2021/09/03 09:50:35;;;;;;;;;;;;;;;;;;5020970;28;20400;-70
2021/09/03 09:53:02;;;;;;;;;;;;;;;;;;5022732;28;19926;-67
2021/09/03 09:55:29;;;;;;;;;;;;;;;;;;5019977;28;19932;-68
2021/09/03 09:57:56;;;;;;;;;;;;;;;;;;5019290;28;20301;-68
2021/09/03 10:00:23;;;;;;;;;;;;;;;;;;5017497;28;19925;-68
2021/09/03 10:02:50;;;;;;;;;;;;;;;;;;5022142;28;19929;-68
2021/09/03 10:05:17;;;;;;;;;;;;;;;;;;5024210;28;19940;-70
2021/09/03 10:07:44;;;;;;;;;;;;;;;;;;5021941;28;19926;-70
2021/09/03 10:10:11;;;;;;;;;;;;;;;;;;5023455;28;19935;-68
2021/09/03 10:12:38;;;;;;;;;;;;;;;;;;5024032;28;19925;-70
2021/09/03 10:15:05;;;;;;;;;;;;;;;;;;5031183;28;20367;-68
2021/09/03 10:17:32;;;;;;;;;;;;;;;;;;5024244;28;20304;-68
2021/09/03 10:19:59;;;;;;;;;;;;;;;;;;5025972;28;19936;-68
2021/09/03 10:22:27;;;;;;;;;;;;;;;;;;5028201;28;19926;-68
2021/09/03 10:24:54;;;;;;;;;;;;;;;;;;5023246;28;19947;-68
2021/09/03 10:27:21;;;;;;;;;;;;;;;;;;5024213;28;20312;-68
2021/09/03 10:29:48;;;;;;;;;;;;;;;;;;5030718;28;19925;-69
2021/09/03 10:32:16;;;;;;;;;;;;;;;;;;5014258;28;19936;-70
2021/09/03 10:34:43;;;;;;;;;;;;;;;;;;5028370;28;20376;-68
2021/09/03 10:37:10;;;;;;;;;;;;;;;;;;5029944;28;19944;-70
2021/09/03 10:39:37;;;;;;;;;;;;;;;;;;5024265;28;19980;-72
2021/09/03 10:42:04;;;;;;;;;;;;;;;;;;5024634;28;20419;-68
2021/09/03 10:44:31;;;;;;;;;;;;;;;;;;5025825;28;19925;-69
2021/09/03 10:46:58;;;;;;;;;;;;;;;;;;5033055;28;19932;-68
2021/09/03 10:49:25;;;;;;;;;;;;;;;;;;5020709;28;20304;-69
2021/09/03 10:51:52;;;;;;;;;;;;;;;;;;5022292;28;19925;-68
2021/09/03 10:54:19;;;;;;;;;;;;;;;;;;5028706;28;19971;-70
2021/09/03 10:56:46;;;;;;;;;;;;;;;;;;5030981;28;19925;-68
2021/09/03 10:59:13;;;;;;;;;;;;;;;;;;5026832;28;20303;-68
2021/09/03 11:01:40;;;;;;;;;;;;;;;;;;5022842;28;19931;-70
2021/09/03 11:04:07;;;;;;;;;;;;;;;;;;5025362;28;19925;-68
2021/09/03 11:06:35;;;;;;;;;;;;;;;;;;5028282;28;20011;-69
2021/09/03 11:09:02;;;;;;;;;;;;;;;;;;5029780;28;19930;-68
2021/09/03 11:11:29;;;;;;;;;;;;;;;;;;5021674;28;19992;-69
2021/09/03 11:13:56;;;;;;;;;;;;;;;;;;5024886;28;20165;-70
2021/09/03 11:16:23;;;;;;;;;;;;;;;;;;5023873;28;20380;-68
2021/09/03 11:18:50;;;;;;;;;;;;;;;;;;5016342;28;20971;-68
2021/09/03 11:21:17;;;;;;;;;;;;;;;;;;5021724;28;19932;-68
2021/09/03 11:23:44;;;;;;;;;;;;;;;;;;5024419;28;19945;-69
2021/09/03 11:26:11;;;;;;;;;;;;;;;;;;5025304;28;19965;-71
2021/09/03 11:28:38;;;;;;;;;;;;;;;;;;5027162;28;20377;-68
2021/09/03 11:31:05;;;;;;;;;;;;;;;;;;5026520;28;19969;-69
2021/09/03 11:33:32;;;;;;;;;;;;;;;;;;5024301;28;19929;-68
2021/09/03 11:35:59;;;;;;;;;;;;;;;;;;5027049;28;19940;-68
2021/09/03 11:38:26;;;;;;;;;;;;;;;;;;5020645;28;19934;-69
2021/09/03 11:40:53;;;;;;;;;;;;;;;;;;5022179;28;20337;-70
2021/09/03 11:43:20;;;;;;;;;;;;;;;;;;5027656;28;19936;-68
2021/09/03 11:45:46;;;;;;;;;;;;;;;;;;5023027;28;20023;-69
2021/09/03 11:48:13;;;;;;;;;;;;;;;;;;5020491;28;19925;-70
2021/09/03 11:50:40;;;;;;;;;;;;;;;;;;5022906;28;19935;-70
2021/09/03 11:53:07;;;;;;;;;;;;;;;;;;5013436;28;19925;-70
2021/09/03 11:55:34;;;;;;;;;;;;;;;;;;5020518;28;20380;-70
2021/09/03 11:58:01;;;;;;;;;;;;;;;;;;5024441;28;19929;-72
2021/09/03 12:00:28;;;;;;;;;;;;;;;;;;5021012;28;19980;-70
2021/09/03 12:02:55;;;;;;;;;;;;;;;;;;5024700;28;19925;-70
2021/09/03 12:05:22;;;;;;;;;;;;;;;;;;5026737;28;20444;-70
2021/09/03 12:07:49;;;;;;;;;;;;;;;;;;5023968;28;20293;-70
2021/09/03 12:10:16;;;;;;;;;;;;;;;;;;5020924;28;19925;-70
2021/09/03 12:12:43;;;;;;;;;;;;;;;;;;5022175;28;20016;-69
2021/09/03 12:15:10;;;;;;;;;;;;;;;;;;5027706;28;20016;-70
2021/09/03 12:17:37;;;;;;;;;;;;;;;;;;5026238;28;20008;-69
2021/09/03 12:20:04;;;;;;;;;;;;;;;;;;5028220;28;19994;-70
2021/09/03 12:22:31;;;;;;;;;;;;;;;;;;5026589;28;19929;-69
2021/09/03 12:24:58;;;;;;;;;;;;;;;;;;5023509;28;19925;-71
2021/09/03 12:27:25;;;;;;;;;;;;;;;;;;5027186;28;20019;-70
2021/09/03 12:29:52;;;;;;;;;;;;;;;;;;5022678;28;19933;-69
2021/09/03 12:32:19;;;;;;;;;;;;;;;;;;5022900;28;19925;-69
2021/09/03 12:34:46;;;;;;;;;;;;;;;;;;5023436;28;19925;-69
2021/09/03 12:37:13;;;;;;;;;;;;;;;;;;5024459;28;20035;-69
2021/09/03 12:39:40;;;;;;;;;;;;;;;;;;5023740;28;20315;-71
2021/09/03 12:42:08;;;;;;;;;;;;;;;;;;5021586;28;20220;-69
2021/09/03 12:44:35;;;;;;;;;;;;;;;;;;5024702;28;19925;-70
2021/09/03 12:47:02;;;;;;;;;;;;;;;;;;5029031;28;19956;-69
2021/09/03 12:49:28;;;;;;;;;;;;;;;;;;5025453;28;20280;-71
2021/09/03 12:51:55;;;;;;;;;;;;;;;;;;5021842;28;19932;-69
2021/09/03 12:54:23;;;;;;;;;;;;;;;;;;5025294;28;19925;-70
2021/09/03 12:56:50;;;;;;;;;;;;;;;;;;5025110;28;19933;-70
2021/09/03 12:59:18;;;;;;;;;;;;;;;;;;5026479;28;20008;-69
2021/09/03 13:01:45;;;;;;;;;;;;;;;;;;5025435;28;19933;-68
2021/09/03 13:04:12;;;;;;;;;;;;;;;;;;5022139;28;19933;-71
2021/09/03 13:06:39;;;;;;;;;;;;;;;;;;5027351;28;20012;-71
2021/09/03 13:09:06;;;;;;;;;;;;;;;;;;5024416;28;19929;-71
2021/09/03 13:11:33;;;;;;;;;;;;;;;;;;5026459;28;20015;-71
2021/09/03 13:14:00;;;;;;;;;;;;;;;;;;5024158;28;19925;-71
2021/09/03 13:16:33;;;;;;;;;;;;;;;;;;5026183;28;19947;-71
2021/09/03 13:19:00;;;;;;;;;;;;;;;;;;5027416;28;20421;-71
2021/09/03 13:21:27;;;;;;;;;;;;;;;;;;5025606;28;19958;-72
2021/09/03 13:23:54;;;;;;;;;;;;;;;;;;5027130;28;19948;-70
2021/09/03 13:26:21;;;;;;;;;;;;;;;;;;5021284;28;20524;-69
2021/09/03 13:28:48;;;;;;;;;;;;;;;;;;5023214;28;19925;-72
2021/09/03 13:31:19;;;;;;;;;;;;;;;;;;5026185;28;19932;-72
2021/09/03 13:33:46;;;;;;;;;;;;;;;;;;5022745;28;19934;-74
2021/09/03 13:36:14;;;;;;;;;;;;;;;;;;5027914;28;19925;-70
2021/09/03 13:38:42;;;;;;;;;;;;;;;;;;5025008;28;20004;-70
2021/09/03 13:41:09;;;;;;;;;;;;;;;;;;5026516;28;19932;-73
2021/09/03 13:43:36;;;;;;;;;;;;;;;;;;5027020;28;19924;-72
2021/09/03 13:46:03;;;;;;;;;;;;;;;;;;5030743;28;19925;-70
2021/09/03 13:48:30;;;;;;;;;;;;;;;;;;5030423;28;19929;-70
2021/09/03 13:50:57;;;;;;;;;;;;;;;;;;5031946;28;19925;-71
2021/09/03 13:53:24;;;;;;;;;;;;;;;;;;5028087;28;19931;-71
2021/09/03 13:55:51;;;;;;;;;;;;;;;;;;5031313;28;20015;-71
2021/09/03 13:58:18;;;;;;;;;;;;;;;;;;5028576;28;19932;-70
2021/09/03 14:00:45;;;;;;;;;;;;;;;;;;5028203;28;19929;-70
2021/09/03 14:03:12;;;;;;;;;;;;;;;;;;5027200;28;19929;-72
2021/09/03 14:05:39;;;;;;;;;;;;;;;;;;5028361;28;19936;-70
2021/09/03 14:08:06;;;;;;;;;;;;;;;;;;5034567;28;19925;-71
2021/09/03 14:10:33;;;;;;;;;;;;;;;;;;5028805;28;20424;-70
2021/09/03 14:12:59;;;;;;;;;;;;;;;;;;5031221;28;20372;-70
2021/09/03 14:15:27;;;;;;;;;;;;;;;;;;5026186;28;19925;-70
2021/09/03 14:17:54;;;;;;;;;;;;;;;;;;5031275;28;19925;-71
2021/09/03 14:20:24;;;;;;;;;;;;;;;;;;5030137;28;20015;-71
2021/09/03 14:22:50;;;;;;;;;;;;;;;;;;5029576;28;20512;-71
2021/09/03 14:25:18;;;;;;;;;;;;;;;;;;5031179;28;19932;-70
2021/09/03 14:27:45;;;;;;;;;;;;;;;;;;5023050;28;19925;-70
2021/09/03 14:30:13;;;;;;;;;;;;;;;;;;5023726;28;20555;-71
2021/09/03 14:32:40;;;;;;;;;;;;;;;;;;5026770;28;20382;-69
2021/09/03 14:35:07;;;;;;;;;;;;;;;;;;5022401;28;19925;-69
2021/09/03 14:37:34;;;;;;;;;;;;;;;;;;5025529;28;20016;-69
2021/09/03 14:40:02;;;;;;;;;;;;;;;;;;5027063;28;19933;-68
2021/09/03 14:42:29;;;;;;;;;;;;;;;;;;5026339;28;19929;-70
2021/09/03 14:44:56;;;;;;;;;;;;;;;;;;5026139;28;21447;-70
2021/09/03 14:47:23;;;;;;;;;;;;;;;;;;5023534;28;20345;-69
2021/09/03 14:49:49;;;;;;;;;;;;;;;;;;5026814;28;19929;-68
2021/09/03 14:52:16;;;;;;;;;;;;;;;;;;5024004;28;19925;-71
2021/09/03 14:54:43;;;;;;;;;;;;;;;;;;5026342;28;19936;-68
2021/09/03 14:57:10;;;;;;;;;;;;;;;;;;5026426;28;19929;-69
2021/09/03 14:59:37;;;;;;;;;;;;;;;;;;5021538;28;19933;-71
2021/09/03 15:02:04;;;;;;;;;;;;;;;;;;5026271;28;19925;-69
2021/09/03 15:04:31;;;;;;;;;;;;;;;;;;5026815;28;19929;-69
2021/09/03 15:06:58;;;;;;;;;;;;;;;;;;5022855;28;19926;-69
2021/09/03 15:09:25;;;;;;;;;;;;;;;;;;5026109;28;19952;-69
2021/09/03 15:11:52;;;;;;;;;;;;;;;;;;5027871;28;19936;-69
2021/09/03 15:14:19;;;;;;;;;;;;;;;;;;5021599;28;19932;-69
2021/09/03 15:16:46;;;;;;;;;;;;;;;;;;5023224;28;19925;-69
2021/09/03 15:19:13;;;;;;;;;;;;;;;;;;5024047;28;20313;-70
2021/09/03 15:21:40;;;;;;;;;;;;;;;;;;5026977;28;19932;-68
2021/09/03 15:24:07;;;;;;;;;;;;;;;;;;5023985;28;19931;-68
2021/09/03 15:26:34;;;;;;;;;;;;;;;;;;5022498;28;19948;-70
2021/09/03 15:29:01;;;;;;;;;;;;;;;;;;5023523;28;19926;-70
2021/09/03 15:31:28;;;;;;;;;;;;;;;;;;5025935;28;20632;-70
2021/09/03 15:33:56;;;;;;;;;;;;;;;;;;5022598;28;19934;-69
2021/09/03 15:36:23;;;;;;;;;;;;;;;;;;5025574;28;19929;-69
2021/09/03 15:38:50;;;;;;;;;;;;;;;;;;5024978;28;19925;-68
2021/09/03 15:41:17;;;;;;;;;;;;;;;;;;5025115;28;19964;-69
2021/09/03 15:43:44;;;;;;;;;;;;;;;;;;5054977;23;20386;-70
2021/09/03 15:46:11;;;;;;;;;;;;;;;;;;5006971;28;19926;-70
2021/09/03 15:48:38;;;;;;;;;;;;;;;;;;5004750;28;20373;-70
2021/09/03 15:51:05;;;;;;;;;;;;;;;;;;5005055;28;20043;-70
2021/09/03 15:53:32;;;;;;;;;;;;;;;;;;5004414;28;20020;-70
2021/09/03 15:55:59;;;;;;;;;;;;;;;;;;5001581;28;19926;-70
2021/09/03 15:58:26;;;;;;;;;;;;;;;;;;5002468;28;20031;-70
2021/09/03 16:00:56;;;;;;;;;;;;;;;;;;5006107;28;19952;-70
2021/09/03 16:03:23;;;;;;;;;;;;;;;;;;5007053;28;19933;-70
2021/09/03 16:05:52;;;;;;;;;;;;;;;;;;5005960;28;19948;-70
2021/09/03 16:08:19;;;;;;;;;;;;;;;;;;5002881;28;19940;-70
2021/09/03 16:10:46;;;;;;;;;;;;;;;;;;5001225;28;20424;-71
2021/09/03 16:13:13;;;;;;;;;;;;;;;;;;5006744;28;20411;-70
2021/09/03 16:15:40;;;;;;;;;;;;;;;;;;5003750;28;20005;-70
2021/09/03 16:18:07;;;;;;;;;;;;;;;;;;5003913;28;20017;-71
2021/09/03 16:20:34;;;;;;;;;;;;;;;;;;5001677;28;20132;-71
2021/09/03 16:23:01;;;;;;;;;;;;;;;;;;5003968;28;20282;-71
2021/09/03 16:25:28;;;;;;;;;;;;;;;;;;5009911;28;20226;-69
2021/09/03 16:27:55;;;;;;;;;;;;;;;;;;5021070;28;19925;-69
2021/09/03 16:30:22;;;;;;;;;;;;;;;;;;5013117;28;19972;-69
2021/09/03 16:32:49;;;;;;;;;;;;;;;;;;5007696;28;20017;-70
2021/09/03 16:35:16;;;;;;;;;;;;;;;;;;5004618;28;20312;-69
2021/09/03 16:37:43;;;;;;;;;;;;;;;;;;5007340;28;19934;-68
2021/09/03 16:40:10;;;;;;;;;;;;;;;;;;5007732;28;19956;-67
2021/09/03 16:42:37;;;;;;;;;;;;;;;;;;5007531;28;19977;-69
2021/09/03 16:45:04;;;;;;;;;;;;;;;;;;5003845;28;19972;-69